Time;durP1;ratioP1;P1;durP2;ratioP2;P2;SDS_P1;SDS_P2;PMS_P1;PMS_P2;Temp;Humidity;BMP_temperature;BMP_pressure;BME280_temperature;BME280_humidity;BME280_pressure;Samples;Min_cycle;Max_cycle;Signal;HPM_P1;HPM_P2
2022/02/10 00:22:21;;;;;;;24.10;14.97;;;;;5.90;101637.00;;;;9607677;30;20275;-78
2022/02/10 00:38:04;;;;;;;26.47;15.80;;;;;5.40;101603.00;;;;9616234;30;20256;-78
2022/02/10 00:43:07;;;;;;;28.13;17.20;;;;;5.40;101608.00;;;;9601171;30;20209;-77
2022/02/10 00:48:11;;;;;;;28.97;16.23;;;;;5.30;101593.00;;;;9627809;30;20318;-77
2022/02/10 00:53:18;;;;;;;29.93;17.33;;;;;5.30;101592.00;;;;9613858;30;20288;-77
2022/02/10 00:58:26;;;;;;;26.03;17.07;;;;;5.30;101584.00;;;;9606971;30;20233;-78
2022/02/10 01:30:02;;;;;;;32.03;18.00;;;;;5.00;101536.00;;;;9624807;30;20351;-78
2022/02/10 01:35:08;;;;;;;35.60;18.10;;;;;5.00;101542.00;;;;9613010;30;20220;-77
2022/02/10 01:40:18;;;;;;;24.77;16.83;;;;;4.90;101548.00;;;;9615642;30;20221;-77
2022/02/10 02:06:49;;;;;;;27.93;17.50;;;;;4.70;101518.00;;;;9590847;30;20234;-77
2022/02/10 02:11:53;;;;;;;28.53;18.50;;;;;4.80;101505.00;;;;9607329;30;20719;-78
2022/02/10 02:17:00;;;;;;;32.13;20.00;;;;;4.90;101493.00;;;;9592538;30;20229;-77
2022/02/10 02:22:06;;;;;;;30.87;20.13;;;;;4.90;101477.00;;;;9607480;30;20209;-78
2022/02/10 02:27:15;;;;;;;31.63;19.83;;;;;4.90;101476.00;;;;9593188;30;20284;-77
2022/02/10 02:32:26;;;;;;;32.33;20.10;;;;;4.90;101468.00;;;;9593654;30;20222;-77
2022/02/10 03:09:43;;;;;;;30.10;20.70;;;;;4.40;101430.00;;;;9628539;30;20208;-78
2022/02/10 03:14:49;;;;;;;35.53;21.47;;;;;4.30;101421.00;;;;9596390;30;20217;-77
2022/02/10 04:07:08;;;;;;;43.70;24.10;;;;;5.40;101446.00;;;;9577900;30;20332;-79
2022/02/10 04:59:43;;;;;;;57.27;30.43;;;;;6.00;101421.00;;;;9619269;30;20590;-77
2022/02/10 05:20:44;;;;;;;52.30;29.53;;;;;6.30;101429.00;;;;9617162;30;20316;-77
2022/02/10 05:36:44;;;;;;;50.70;29.83;;;;;6.60;101422.00;;;;9650052;30;20225;-78
2022/02/10 05:57:31;;;;;;;46.70;26.23;;;;;6.80;101433.00;;;;9605758;30;20206;-78
2022/02/10 06:50:38;;;;;;;36.87;23.07;;;;;6.70;101475.00;;;;9618724;30;20201;-78
2022/02/10 06:56:13;;;;;;;37.07;22.70;;;;;6.70;101472.00;;;;9609963;30;20205;-78
2022/02/10 09:56:52;;;;;;;22.53;13.90;;;;;7.60;101577.00;;;;9621396;30;20205;-81
2022/02/10 10:02:26;;;;;;;19.60;12.97;;;;;7.70;101584.00;;;;9628928;30;20347;-82
2022/02/10 10:07:32;;;;;;;24.00;15.13;;;;;7.70;101586.00;;;;9613587;30;20725;-82
2022/02/10 10:13:57;;;;;;;22.53;14.97;;;;;7.60;101605.00;;;;9637917;30;20215;-82
2022/02/10 10:47:33;;;;;;;16.83;10.73;;;;;10.50;101582.00;;;;9616972;30;20273;-81
2022/02/10 10:51:32;;;;;;;17.73;11.10;;;;;10.90;101599.00;;;;9601253;30;20209;-80
2022/02/10 10:56:37;;;;;;;12.90;8.13;;;;;10.40;101597.00;;;;9609743;30;20201;-81
2022/02/10 11:40:24;;;;;;;7.93;5.03;;;;;9.80;101601.00;;;;9620521;30;20231;-80
2022/02/10 13:23:30;;;;;;;6.67;5.80;;;;;10.60;101596.00;;;;9616159;30;20284;-79
2022/02/10 14:16:37;;;;;;;6.30;2.30;;;;;9.30;101596.00;;;;9596201;30;20241;-79
2022/02/10 14:21:48;;;;;;;7.47;3.00;;;;;9.00;101606.00;;;;9602025;30;20221;-78
2022/02/10 14:26:50;;;;;;;6.03;2.70;;;;;8.80;101607.00;;;;9637647;30;20215;-78
2022/02/10 14:31:54;;;;;;;7.53;2.80;;;;;8.90;101598.00;;;;9622527;30;20201;-79
2022/02/10 14:37:15;;;;;;;14.47;2.57;;;;;8.90;101600.00;;;;9637149;30;20220;-78
2022/02/10 15:47:06;;;;;;;8.77;4.10;;;;;6.20;101637.00;;;;10490647;28;20189;-83
2022/02/10 16:18:08;;;;;;;9.87;6.30;;;;;6.20;101649.00;;;;10478002;28;20222;-80
2022/02/10 16:23:16;;;;;;;9.00;6.83;;;;;6.10;101645.00;;;;10438910;28;20202;-81
2022/02/10 16:33:23;;;;;;;13.17;8.07;;;;;6.10;101661.00;;;;10420106;28;20198;-81
2022/02/10 16:38:26;;;;;;;14.53;8.03;;;;;6.10;101659.00;;;;10438454;28;20276;-81
2022/02/10 16:43:33;;;;;;;12.03;5.97;;;;;5.90;101659.00;;;;10407969;28;20201;-80
2022/02/10 16:48:39;;;;;;;13.20;6.30;;;;;5.70;101647.00;;;;10423460;28;20195;-82
2022/02/10 16:53:52;;;;;;;11.00;6.30;;;;;5.60;101655.00;;;;10520251;28;20189;-79
2022/02/10 16:59:07;;;;;;;13.13;7.50;;;;;5.60;101663.00;;;;10491863;28;20220;-82
2022/02/10 17:25:35;;;;;;;13.53;5.97;;;;;5.70;101672.00;;;;10489113;28;20267;-80
2022/02/10 17:31:42;;;;;;;12.07;6.00;;;;;5.60;101673.00;;;;10513856;28;20184;-80
2022/02/10 17:36:13;;;;;;;12.47;5.23;;;;;5.60;101677.00;;;;10478170;28;20883;-81
2022/02/10 17:41:35;;;;;;;8.40;2.77;;;;;5.50;101662.00;;;;10497413;28;20242;-79
2022/02/10 17:57:01;;;;;;;4.50;1.83;;;;;5.20;101684.00;;;;10504742;28;20313;-80
2022/02/10 18:02:04;;;;;;;2.00;0.70;;;;;4.90;101697.00;;;;10502832;28;20680;-81
2022/02/10 18:07:07;;;;;;;6.73;1.83;;;;;4.60;101693.00;;;;10488028;28;20214;-79
2022/02/10 18:17:34;;;;;;;2.70;1.37;;;;;4.60;101716.00;;;;10510662;28;20288;-80
2022/02/10 18:28:06;;;;;;;3.00;1.60;;;;;4.50;101732.00;;;;10546712;28;20202;-79
2022/02/10 19:01:38;;;;;;;2.80;1.00;;;;;3.90;101771.00;;;;10500654;28;20196;-79
2022/02/10 19:10:24;;;;;;;1.33;1.00;;;;;3.90;101767.00;;;;10514704;28;20242;-77
2022/02/10 19:15:33;;;;;;;4.27;1.27;;;;;3.90;101741.00;;;;10498356;28;20208;-78
2022/02/10 19:20:36;;;;;;;1.00;0.80;;;;;3.90;101742.00;;;;10517047;28;20201;-78
2022/02/10 19:25:39;;;;;;;1.47;0.73;;;;;3.90;101741.00;;;;10516024;28;20231;-78
2022/02/10 19:30:41;;;;;;;1.50;1.20;;;;;3.90;101755.00;;;;10497420;28;20189;-78
2022/02/10 19:35:49;;;;;;;3.53;1.23;;;;;3.90;101762.00;;;;10532165;28;20189;-78
2022/02/10 19:40:54;;;;;;;1.43;1.20;;;;;3.90;101746.00;;;;10463633;28;20202;-78
2022/02/10 19:45:56;;;;;;;3.13;1.43;;;;;3.90;101762.00;;;;10455827;28;20190;-77
2022/02/10 19:50:58;;;;;;;2.50;1.10;;;;;3.90;101771.00;;;;10513517;28;20192;-77
2022/02/10 19:56:00;;;;;;;2.07;1.50;;;;;3.90;101773.00;;;;10499215;28;20220;-77
2022/02/10 20:01:03;;;;;;;2.50;1.10;;;;;3.90;101769.00;;;;10464038;28;20295;-77
2022/02/10 20:06:05;;;;;;;5.47;1.67;;;;;3.90;101773.00;;;;10473534;28;20219;-77
2022/02/10 20:11:08;;;;;;;4.30;1.80;;;;;3.90;101764.00;;;;10505369;28;20604;-77
2022/02/10 20:16:13;;;;;;;4.53;2.23;;;;;3.90;101770.00;;;;10473490;28;20219;-77
2022/02/10 20:21:15;;;;;;;6.47;2.10;;;;;3.90;101772.00;;;;10536643;28;20722;-78
2022/02/10 20:26:18;;;;;;;2.13;1.80;;;;;3.90;101775.00;;;;10522773;28;20185;-77
2022/02/10 20:31:20;;;;;;;2.80;1.70;;;;;3.90;101772.00;;;;10518878;28;20196;-77
2022/02/10 20:36:22;;;;;;;3.90;2.00;;;;;4.00;101767.00;;;;10508157;28;20236;-77
2022/02/10 20:41:29;;;;;;;2.70;1.77;;;;;4.00;101772.00;;;;10506558;28;20217;-77
2022/02/10 20:46:38;;;;;;;5.03;2.10;;;;;4.00;101777.00;;;;10486296;28;20189;-77
2022/02/10 20:51:40;;;;;;;4.67;2.03;;;;;4.00;101773.00;;;;10519459;28;20203;-78
2022/02/10 20:56:42;;;;;;;4.30;2.70;;;;;4.00;101771.00;;;;10501799;28;20217;-77
2022/02/10 21:01:45;;;;;;;7.17;1.93;;;;;4.00;101783.00;;;;10505660;28;20238;-77
2022/02/10 21:11:54;;;;;;;4.70;2.37;;;;;4.00;101770.00;;;;10519698;28;20276;-77
2022/02/10 21:17:09;;;;;;;8.43;4.00;;;;;4.00;101779.00;;;;10520845;28;20205;-77
2022/02/10 21:22:13;;;;;;;6.47;3.77;;;;;3.90;101777.00;;;;10480691;28;20196;-77
2022/02/10 21:32:47;;;;;;;5.33;3.63;;;;;4.00;101779.00;;;;10503532;28;20241;-77
2022/02/10 21:38:00;;;;;;;5.33;3.57;;;;;4.00;101795.00;;;;10504471;28;20197;-77
2022/02/10 21:54:06;;;;;;;3.63;2.70;;;;;3.90;101788.00;;;;10504177;28;20283;-76
2022/02/10 22:04:45;;;;;;;4.80;2.37;;;;;3.70;101805.00;;;;10517257;28;20218;-78
2022/02/10 22:19:59;;;;;;;2.93;2.30;;;;;3.40;101811.00;;;;10501119;28;20308;-78
2022/02/10 22:25:07;;;;;;;4.97;2.77;;;;;3.40;101823.00;;;;10483167;28;20219;-78
2022/02/10 22:30:18;;;;;;;2.97;2.67;;;;;3.20;101817.00;;;;10509396;28;20578;-78
2022/02/10 22:35:22;;;;;;;3.90;2.93;;;;;3.10;101822.00;;;;10516284;28;20184;-78
2022/02/10 22:40:40;;;;;;;4.63;3.30;;;;;3.00;101811.00;;;;10511420;28;20205;-78
2022/02/10 22:45:42;;;;;;;4.43;3.57;;;;;2.90;101811.00;;;;10497563;28;20629;-78
2022/02/10 22:50:44;;;;;;;6.03;4.63;;;;;2.80;101815.00;;;;10513433;28;20185;-78
2022/02/10 22:55:46;;;;;;;8.37;5.40;;;;;2.80;101822.00;;;;10533462;28;20618;-78
2022/02/10 23:00:48;;;;;;;10.00;5.70;;;;;2.80;101822.00;;;;10486547;28;20268;-78
2022/02/10 23:05:51;;;;;;;9.00;5.50;;;;;2.80;101824.00;;;;10502360;28;20213;-78
2022/02/10 23:10:53;;;;;;;10.40;6.60;;;;;2.80;101822.00;;;;10466547;28;20246;-77
2022/02/10 23:16:14;;;;;;;11.67;6.80;;;;;2.80;101827.00;;;;10485104;28;20200;-78
2022/02/10 23:21:16;;;;;;;10.57;7.43;;;;;2.80;101829.00;;;;10515411;28;20250;-78
2022/02/10 23:26:20;;;;;;;12.53;7.73;;;;;2.80;101830.00;;;;10502642;28;20541;-78
2022/02/10 23:31:24;;;;;;;14.33;8.27;;;;;2.90;101824.00;;;;10502534;28;20189;-78
2022/02/10 23:46:45;;;;;;;14.10;8.97;;;;;3.30;101838.00;;;;10540945;28;20216;-78
2022/02/10 23:51:55;;;;;;;14.33;8.83;;;;;3.30;101853.00;;;;10518815;28;20207;-78
2022/02/10 23:57:06;;;;;;;12.27;8.33;;;;;3.20;101844.00;;;;10487850;28;20206;-78
